Eastover, SC

1:23 PM EDT on April 01, 2015 (GMT -0400)
McEntire Angs | | Change Station
CLOSE
Current Station
Airport
Location: Eastover,
Elevation: 253 ft
Nearby Weather Stations

Elev 253 ft 33.92 °N, 80.80 °W | Updated 1 hour ago

Clear
Clear
71 °F
Feels Like 71 °F
N
8
Wind Variable Wind from NE

Today
High -- | Low -- °F
--% Chance of Precip.
Yesterday
High -- | Low -- °F
Precip. -- in
7:10 AM 7:43 PM
Waxing Gibbous, 93% visible
Pressure 30.07 in
Visibility 6.0 miles
Clouds Few 1000 ft
Few 9000 ft
Dew Point 43 °F
Humidity 37%
Rainfall 0.00 in
Snow Depth Not available.
UV 8 out of 12
Pollen 10.50 out of 12
Air Quality Not available.
Flu Activity Not available.
METAR KMMT 011558Z 04007KT 6SM FU FEW010 FEW090 FWE250 22/06 A3007 RMK AO2A FU FEW010 SLP184 T02160062

More Conditions Fewer Conditions

Pressure 30.07 in
Visibility 6.0 miles
Clouds Few 1000 ft
Few 9000 ft
Dew Point 43 °F
Humidity 37%
Rainfall 0.00 in
Snow Depth Not available.
UV 8 out of 12
Pollen 10.50 out of 12
Air Quality Not available.
Flu Activity Not available.
METAR KMMT 011558Z 04007KT 6SM FU FEW010 FEW090 FWE250 22/06 A3007 RMK AO2A FU FEW010 SLP184 T02160062

More Conditions Fewer Conditions

10-Day Weather Forecast

Almanac

Astronomy

Apr. 01, 2015 Rise Set
Actual Time
Civil Twilight
Nautical Twilight
Astronomical Twilight
Moon
Length of Visible Light
Length of Day
Tomorrow will be .
, % of the Moon is Illuminated

Today's Extremes

State Highs State Lows

Community

WunderPhotos

Upload Photos

1,810,011 photos uploaded!

WunderBlogs® & News

Nearby

Air Quality

  Air Quality AQ Index Pollutant
Not available.

Snow Depth

Station Depth Elevation

Earthquake Activity

City Distance Mag. Time & Date
Minimum magnitude displayed is 2.5.

Coastal Water Temperatures

Place Temperature

Stations

Nearby Weather Stations

Station Location Temp. Windchill Dew Point Humidity Wind Precip. Elev Updated Type